Angra Dos Reis, Brazil

8:22 AM BRT on July 31, 2015 (GMT -0300)
Santa Cruz Air Base | | Change Station
CLOSE
Current Station
Airport
Location: Santa Cruz,
Elevation: 10 ft
Nearby Weather Stations

Elev 10 ft 22.93 °S, 43.72 °W | Updated 22 minutes ago

Mist
Mist
68 °F
Feels Like 68 °F
N
5
Wind Variable Wind from NE

Today
High -- | Low -- °F
--% Chance of Precip.
Yesterday
High -- | Low -- °F
Precip. -- in
6:32 AM 5:35 PM
Full, 100% visible
Pressure 30.15 in
Visibility 3.1 miles
Clouds
Dew Point 66 °F
Humidity 94%
Rainfall 0.00 in
Snow Depth Not available.
UV Not available.
Pollen Not available.
Air Quality Not available.
Flu Activity Not available.
METAR SBSC 311100Z 04004KT 5000 BR NSC 20/19 Q1021

More Conditions Fewer Conditions

Pressure 30.15 in
Visibility 3.1 miles
Clouds
Dew Point 66 °F
Humidity 94%
Rainfall 0.00 in
Snow Depth Not available.
UV Not available.
Pollen Not available.
Air Quality Not available.
Flu Activity Not available.
METAR SBSC 311100Z 04004KT 5000 BR NSC 20/19 Q1021

More Conditions Fewer Conditions

10-Day Weather Forecast

×

Almanac

Astronomy

Jul. 31, 2015 Rise Set
Actual Time
Civil Twilight
Nautical Twilight
Astronomical Twilight
Moon
Length of Visible Light
Length of Day
Tomorrow will be .
, % of the Moon is Illuminated

Today's Extremes

Country Highs Country Lows

Community

WunderPhotos

Upload Photos

1,842,645 photos uploaded!

WunderBlogs® & News

Nearby

Air Quality

  Air Quality AQ Index Pollutant
Not available.

Snow Depth

Station Depth Elevation

Earthquake Activity

City Distance Mag. Time & Date
Minimum magnitude displayed is 2.5.

Coastal Water Temperatures

Place Temperature

Stations

Nearby Weather Stations

Station Location Temp. Windchill Dew Point Humidity Wind Precip. Elev Updated Type